Terminal Aerodrome Forecast
Issued by NWS Duluth, MN

Home | Current Version | Previous Version | Text Only | Print | Product List | Glossary On
Versions: 1 2 3 4 5 6 7 8 9 10 11 12 13 14 15 16 17 18 19 20 21 22 23 24
304
FTUS43 KDLH 242342
TAFDLH
TAF
KDLH 242342Z 2500/2524 29013G17KT P6SM SCT060
      TEMPO 2500/2501 6SM -SHRA BKN060
     FM250130 28008KT P6SM SCT060
     FM251500 30010G16KT P6SM FEW050
     FM251800 29010G17KT P6SM SCT050=

USA.gov is the U.S. government's official web portal to all federal, state and local government web resources and services.